sensor_id;sensor_type;location;lat;lon;timestamp;temperature;humidity
60848;DHT22;46681;47.696;9.140;2022-10-16T00:01:28;15.30;81.80
60848;DHT22;46681;47.696;9.140;2022-10-16T00:04:00;15.20;81.90
60848;DHT22;46681;47.696;9.140;2022-10-16T00:06:29;15.20;81.70
60848;DHT22;46681;47.696;9.140;2022-10-16T00:08:56;15.20;81.90
60848;DHT22;46681;47.696;9.140;2022-10-16T00:11:26;15.20;81.90
60848;DHT22;46681;47.696;9.140;2022-10-16T00:13:58;15.20;81.80
60848;DHT22;46681;47.696;9.140;2022-10-16T00:16:29;15.20;81.70
60848;DHT22;46681;47.696;9.140;2022-10-16T00:18:56;15.20;81.80
60848;DHT22;46681;47.696;9.140;2022-10-16T00:21:31;15.20;81.90
60848;DHT22;46681;47.696;9.140;2022-10-16T00:24:04;15.20;81.80
60848;DHT22;46681;47.696;9.140;2022-10-16T00:26:36;15.20;81.80
60848;DHT22;46681;47.696;9.140;2022-10-16T00:29:03;15.20;81.80
60848;DHT22;46681;47.696;9.140;2022-10-16T00:31:30;15.20;81.80
60848;DHT22;46681;47.696;9.140;2022-10-16T00:33:56;15.20;81.80
60848;DHT22;46681;47.696;9.140;2022-10-16T00:36:25;15.20;81.90
60848;DHT22;46681;47.696;9.140;2022-10-16T00:38:53;15.20;81.90
60848;DHT22;46681;47.696;9.140;2022-10-16T00:41:22;15.20;81.80
60848;DHT22;46681;47.696;9.140;2022-10-16T00:48:55;15.20;81.80
60848;DHT22;46681;47.696;9.140;2022-10-16T00:51:34;15.10;81.80
60848;DHT22;46681;47.696;9.140;2022-10-16T00:54:08;15.10;82.00
60848;DHT22;46681;47.696;9.140;2022-10-16T00:56:36;15.10;81.80
60848;DHT22;46681;47.696;9.140;2022-10-16T00:59:06;15.10;81.90
60848;DHT22;46681;47.696;9.140;2022-10-16T01:01:32;15.10;81.80
60848;DHT22;46681;47.696;9.140;2022-10-16T01:04:01;15.10;81.90
60848;DHT22;46681;47.696;9.140;2022-10-16T01:15:25;15.10;81.70
60848;DHT22;46681;47.696;9.140;2022-10-16T01:18:00;15.10;81.90
60848;DHT22;46681;47.696;9.140;2022-10-16T01:20:47;15.10;81.80
60848;DHT22;46681;47.696;9.140;2022-10-16T01:26:24;15.10;81.90
60848;DHT22;46681;47.696;9.140;2022-10-16T01:29:04;15.10;81.70
60848;DHT22;46681;47.696;9.140;2022-10-16T01:31:37;15.10;81.70
60848;DHT22;46681;47.696;9.140;2022-10-16T01:34:10;15.10;81.80
60848;DHT22;46681;47.696;9.140;2022-10-16T01:37:04;15.10;81.90
60848;DHT22;46681;47.696;9.140;2022-10-16T01:39:35;15.10;81.80
60848;DHT22;46681;47.696;9.140;2022-10-16T01:42:19;15.10;81.80
60848;DHT22;46681;47.696;9.140;2022-10-16T01:44:46;15.10;81.80
60848;DHT22;46681;47.696;9.140;2022-10-16T01:47:13;15.10;81.80
60848;DHT22;46681;47.696;9.140;2022-10-16T01:49:40;15.10;81.70
60848;DHT22;46681;47.696;9.140;2022-10-16T01:52:09;15.10;81.80
60848;DHT22;46681;47.696;9.140;2022-10-16T01:54:40;15.10;82.20
60848;DHT22;46681;47.696;9.140;2022-10-16T01:57:10;15.10;81.90
60848;DHT22;46681;47.696;9.140;2022-10-16T01:59:44;15.10;81.80
60848;DHT22;46681;47.696;9.140;2022-10-16T02:02:13;15.10;81.90
60848;DHT22;46681;47.696;9.140;2022-10-16T02:04:46;15.10;81.80
60848;DHT22;46681;47.696;9.140;2022-10-16T02:07:15;15.10;82.20
60848;DHT22;46681;47.696;9.140;2022-10-16T02:09:40;15.10;81.80
60848;DHT22;46681;47.696;9.140;2022-10-16T02:12:31;15.10;81.70
60848;DHT22;46681;47.696;9.140;2022-10-16T02:14:58;15.10;81.70
60848;DHT22;46681;47.696;9.140;2022-10-16T02:17:25;15.10;81.60
60848;DHT22;46681;47.696;9.140;2022-10-16T02:19:53;15.10;81.70
60848;DHT22;46681;47.696;9.140;2022-10-16T02:28:22;15.10;82.30
60848;DHT22;46681;47.696;9.140;2022-10-16T02:30:34;15.10;81.70
60848;DHT22;46681;47.696;9.140;2022-10-16T02:33:03;15.10;81.70
60848;DHT22;46681;47.696;9.140;2022-10-16T02:35:31;15.10;81.80
60848;DHT22;46681;47.696;9.140;2022-10-16T02:37:59;15.10;81.80
60848;DHT22;46681;47.696;9.140;2022-10-16T02:40:26;15.10;81.80
60848;DHT22;46681;47.696;9.140;2022-10-16T02:42:54;15.10;81.70
60848;DHT22;46681;47.696;9.140;2022-10-16T02:45:25;15.10;81.70
60848;DHT22;46681;47.696;9.140;2022-10-16T02:47:51;15.10;82.20
60848;DHT22;46681;47.696;9.140;2022-10-16T02:50:16;15.10;81.70
60848;DHT22;46681;47.696;9.140;2022-10-16T02:52:42;15.10;81.70
60848;DHT22;46681;47.696;9.140;2022-10-16T02:55:08;15.10;81.70
60848;DHT22;46681;47.696;9.140;2022-10-16T02:57:34;15.10;81.80
60848;DHT22;46681;47.696;9.140;2022-10-16T03:00:03;15.10;81.60
60848;DHT22;46681;47.696;9.140;2022-10-16T03:02:30;15.10;81.70
60848;DHT22;46681;47.696;9.140;2022-10-16T03:04:58;15.10;81.70
60848;DHT22;46681;47.696;9.140;2022-10-16T03:07:25;15.10;81.70
60848;DHT22;46681;47.696;9.140;2022-10-16T03:09:50;15.10;81.60
60848;DHT22;46681;47.696;9.140;2022-10-16T03:12:16;15.10;81.60
60848;DHT22;46681;47.696;9.140;2022-10-16T03:14:43;15.10;81.60
60848;DHT22;46681;47.696;9.140;2022-10-16T03:17:08;15.10;81.80
60848;DHT22;46681;47.696;9.140;2022-10-16T03:19:34;15.10;81.60
60848;DHT22;46681;47.696;9.140;2022-10-16T03:22:00;15.00;81.50
60848;DHT22;46681;47.696;9.140;2022-10-16T03:24:26;15.00;81.60
60848;DHT22;46681;47.696;9.140;2022-10-16T03:26:55;15.00;81.60
60848;DHT22;46681;47.696;9.140;2022-10-16T03:29:22;15.00;81.50
60848;DHT22;46681;47.696;9.140;2022-10-16T03:31:48;15.00;81.60
60848;DHT22;46681;47.696;9.140;2022-10-16T03:34:13;15.00;81.50
60848;DHT22;46681;47.696;9.140;2022-10-16T03:36:39;15.00;81.60
60848;DHT22;46681;47.696;9.140;2022-10-16T03:39:04;15.00;81.60
60848;DHT22;46681;47.696;9.140;2022-10-16T03:41:30;15.00;81.60
60848;DHT22;46681;47.696;9.140;2022-10-16T03:43:57;15.00;81.70
60848;DHT22;46681;47.696;9.140;2022-10-16T03:46:28;15.00;81.70
60848;DHT22;46681;47.696;9.140;2022-10-16T03:48:53;15.00;81.70
60848;DHT22;46681;47.696;9.140;2022-10-16T03:51:19;15.00;81.60
60848;DHT22;46681;47.696;9.140;2022-10-16T03:53:45;15.00;81.50
60848;DHT22;46681;47.696;9.140;2022-10-16T03:56:10;15.00;81.50
60848;DHT22;46681;47.696;9.140;2022-10-16T03:58:37;15.00;81.50
60848;DHT22;46681;47.696;9.140;2022-10-16T04:01:02;15.00;81.60
60848;DHT22;46681;47.696;9.140;2022-10-16T04:03:30;15.00;81.50
60848;DHT22;46681;47.696;9.140;2022-10-16T04:05:57;15.00;81.50
60848;DHT22;46681;47.696;9.140;2022-10-16T04:08:25;15.00;81.60
60848;DHT22;46681;47.696;9.140;2022-10-16T04:10:51;15.00;81.60
60848;DHT22;46681;47.696;9.140;2022-10-16T04:13:16;15.00;81.40
60848;DHT22;46681;47.696;9.140;2022-10-16T04:15:42;15.00;81.50
60848;DHT22;46681;47.696;9.140;2022-10-16T04:18:11;15.00;82.10
60848;DHT22;46681;47.696;9.140;2022-10-16T04:20:36;15.00;81.60
60848;DHT22;46681;47.696;9.140;2022-10-16T04:23:02;15.00;81.60
60848;DHT22;46681;47.696;9.140;2022-10-16T04:25:29;15.00;81.50
60848;DHT22;46681;47.696;9.140;2022-10-16T04:27:56;15.00;81.60
60848;DHT22;46681;47.696;9.140;2022-10-16T04:30:27;15.00;81.50
60848;DHT22;46681;47.696;9.140;2022-10-16T04:32:54;15.00;81.50
60848;DHT22;46681;47.696;9.140;2022-10-16T04:35:21;15.00;81.60
60848;DHT22;46681;47.696;9.140;2022-10-16T04:37:47;15.00;81.70
60848;DHT22;46681;47.696;9.140;2022-10-16T04:40:15;15.00;81.60
60848;DHT22;46681;47.696;9.140;2022-10-16T04:42:41;15.00;81.50
60848;DHT22;46681;47.696;9.140;2022-10-16T04:45:09;15.00;82.00
60848;DHT22;46681;47.696;9.140;2022-10-16T04:47:34;15.00;81.50
60848;DHT22;46681;47.696;9.140;2022-10-16T04:50:00;15.00;81.50
60848;DHT22;46681;47.696;9.140;2022-10-16T04:52:30;15.00;81.50
60848;DHT22;46681;47.696;9.140;2022-10-16T04:54:56;15.00;81.50
60848;DHT22;46681;47.696;9.140;2022-10-16T04:57:22;15.00;81.60
60848;DHT22;46681;47.696;9.140;2022-10-16T04:59:50;15.00;81.60
60848;DHT22;46681;47.696;9.140;2022-10-16T05:02:16;15.00;81.60
60848;DHT22;46681;47.696;9.140;2022-10-16T05:04:43;15.00;81.60
60848;DHT22;46681;47.696;9.140;2022-10-16T05:07:12;15.00;81.50
60848;DHT22;46681;47.696;9.140;2022-10-16T05:09:37;15.00;81.50
60848;DHT22;46681;47.696;9.140;2022-10-16T05:12:03;15.00;81.50
60848;DHT22;46681;47.696;9.140;2022-10-16T05:14:31;15.00;81.40
60848;DHT22;46681;47.696;9.140;2022-10-16T05:16:59;15.00;81.50
60848;DHT22;46681;47.696;9.140;2022-10-16T05:19:25;15.00;81.60
60848;DHT22;46681;47.696;9.140;2022-10-16T05:21:50;15.00;81.60
60848;DHT22;46681;47.696;9.140;2022-10-16T05:24:17;15.00;81.50
60848;DHT22;46681;47.696;9.140;2022-10-16T05:26:42;15.00;81.50
60848;DHT22;46681;47.696;9.140;2022-10-16T05:29:09;15.00;81.50
60848;DHT22;46681;47.696;9.140;2022-10-16T05:31:34;15.10;81.50
60848;DHT22;46681;47.696;9.140;2022-10-16T05:34:00;15.00;81.40
60848;DHT22;46681;47.696;9.140;2022-10-16T05:36:25;15.10;81.50
60848;DHT22;46681;47.696;9.140;2022-10-16T05:38:53;15.10;81.40
60848;DHT22;46681;47.696;9.140;2022-10-16T05:41:21;15.10;81.50
60848;DHT22;46681;47.696;9.140;2022-10-16T05:43:47;15.10;81.60
60848;DHT22;46681;47.696;9.140;2022-10-16T05:46:15;15.10;81.80
60848;DHT22;46681;47.696;9.140;2022-10-16T05:48:42;15.10;81.60
60848;DHT22;46681;47.696;9.140;2022-10-16T05:51:13;15.10;82.00
60848;DHT22;46681;47.696;9.140;2022-10-16T05:53:40;15.10;81.70
60848;DHT22;46681;47.696;9.140;2022-10-16T05:56:07;15.10;81.80
60848;DHT22;46681;47.696;9.140;2022-10-16T05:58:36;15.10;82.00
60848;DHT22;46681;47.696;9.140;2022-10-16T06:01:13;15.20;81.90
60848;DHT22;46681;47.696;9.140;2022-10-16T06:03:40;15.10;82.20
60848;DHT22;46681;47.696;9.140;2022-10-16T06:06:26;15.20;81.90
60848;DHT22;46681;47.696;9.140;2022-10-16T06:08:53;15.20;81.80
60848;DHT22;46681;47.696;9.140;2022-10-16T06:11:27;15.30;83.20
60848;DHT22;46681;47.696;9.140;2022-10-16T06:13:56;15.30;83.20
60848;DHT22;46681;47.696;9.140;2022-10-16T06:16:23;15.40;83.10
60848;DHT22;46681;47.696;9.140;2022-10-16T06:18:51;15.50;83.70
60848;DHT22;46681;47.696;9.140;2022-10-16T06:21:19;15.50;83.50
60848;DHT22;46681;47.696;9.140;2022-10-16T06:23:47;15.60;83.00
60848;DHT22;46681;47.696;9.140;2022-10-16T06:26:15;15.60;82.90
60848;DHT22;46681;47.696;9.140;2022-10-16T06:28:41;15.60;82.50
60848;DHT22;46681;47.696;9.140;2022-10-16T06:31:10;15.60;82.10
60848;DHT22;46681;47.696;9.140;2022-10-16T06:33:37;15.50;81.80
60848;DHT22;46681;47.696;9.140;2022-10-16T06:36:09;15.50;81.90
60848;DHT22;46681;47.696;9.140;2022-10-16T06:38:36;15.50;81.90
60848;DHT22;46681;47.696;9.140;2022-10-16T06:41:07;15.50;81.80
60848;DHT22;46681;47.696;9.140;2022-10-16T06:43:36;15.50;83.00
60848;DHT22;46681;47.696;9.140;2022-10-16T06:46:04;15.60;83.40
60848;DHT22;46681;47.696;9.140;2022-10-16T06:48:30;15.70;83.00
60848;DHT22;46681;47.696;9.140;2022-10-16T06:51:02;15.80;82.50
60848;DHT22;46681;47.696;9.140;2022-10-16T06:53:33;15.80;82.60
60848;DHT22;46681;47.696;9.140;2022-10-16T06:56:20;15.80;81.80
60848;DHT22;46681;47.696;9.140;2022-10-16T06:58:48;15.80;81.70
60848;DHT22;46681;47.696;9.140;2022-10-16T07:01:15;15.80;81.80
60848;DHT22;46681;47.696;9.140;2022-10-16T07:03:42;15.70;81.70
60848;DHT22;46681;47.696;9.140;2022-10-16T07:06:11;15.70;81.70
60848;DHT22;46681;47.696;9.140;2022-10-16T07:08:39;15.70;81.60
60848;DHT22;46681;47.696;9.140;2022-10-16T07:11:08;15.70;81.90
60848;DHT22;46681;47.696;9.140;2022-10-16T07:13:39;15.70;81.80
60848;DHT22;46681;47.696;9.140;2022-10-16T07:16:09;15.70;81.80
60848;DHT22;46681;47.696;9.140;2022-10-16T07:18:36;15.70;81.80
60848;DHT22;46681;47.696;9.140;2022-10-16T07:21:08;15.80;82.10
60848;DHT22;46681;47.696;9.140;2022-10-16T07:23:37;15.80;81.80
60848;DHT22;46681;47.696;9.140;2022-10-16T07:26:05;15.80;81.60
60848;DHT22;46681;47.696;9.140;2022-10-16T07:28:31;15.80;81.40
60848;DHT22;46681;47.696;9.140;2022-10-16T07:31:09;15.80;81.50
60848;DHT22;46681;47.696;9.140;2022-10-16T07:33:35;15.80;81.50
60848;DHT22;46681;47.696;9.140;2022-10-16T07:36:03;15.80;81.60
60848;DHT22;46681;47.696;9.140;2022-10-16T07:38:29;15.90;82.20
60848;DHT22;46681;47.696;9.140;2022-10-16T07:41:02;15.90;82.00
60848;DHT22;46681;47.696;9.140;2022-10-16T07:43:29;16.00;82.20
60848;DHT22;46681;47.696;9.140;2022-10-16T07:45:58;16.00;81.30
60848;DHT22;46681;47.696;9.140;2022-10-16T07:48:26;16.00;81.00
60848;DHT22;46681;47.696;9.140;2022-10-16T07:50:52;16.10;80.80
60848;DHT22;46681;47.696;9.140;2022-10-16T07:53:18;16.10;80.70
60848;DHT22;46681;47.696;9.140;2022-10-16T07:55:43;16.10;80.80
60848;DHT22;46681;47.696;9.140;2022-10-16T07:58:09;16.20;80.90
60848;DHT22;46681;47.696;9.140;2022-10-16T08:00:36;16.20;80.70
60848;DHT22;46681;47.696;9.140;2022-10-16T08:03:02;16.30;80.40
60848;DHT22;46681;47.696;9.140;2022-10-16T08:05:33;16.40;80.00
60848;DHT22;46681;47.696;9.140;2022-10-16T08:08:03;16.50;79.80
60848;DHT22;46681;47.696;9.140;2022-10-16T08:10:29;16.60;79.30
60848;DHT22;46681;47.696;9.140;2022-10-16T08:12:56;16.70;78.80
60848;DHT22;46681;47.696;9.140;2022-10-16T08:15:23;16.80;78.50
60848;DHT22;46681;47.696;9.140;2022-10-16T08:18:00;17.00;78.90
60848;DHT22;46681;47.696;9.140;2022-10-16T08:20:33;17.10;78.50
60848;DHT22;46681;47.696;9.140;2022-10-16T08:23:02;17.20;78.40
60848;DHT22;46681;47.696;9.140;2022-10-16T08:25:30;17.30;78.10
60848;DHT22;46681;47.696;9.140;2022-10-16T08:27:56;17.40;78.20
60848;DHT22;46681;47.696;9.140;2022-10-16T08:30:24;17.50;78.10
60848;DHT22;46681;47.696;9.140;2022-10-16T08:32:50;17.60;78.00
60848;DHT22;46681;47.696;9.140;2022-10-16T08:35:16;17.70;77.80
60848;DHT22;46681;47.696;9.140;2022-10-16T08:37:44;17.80;77.60
60848;DHT22;46681;47.696;9.140;2022-10-16T08:40:31;17.90;77.40
60848;DHT22;46681;47.696;9.140;2022-10-16T08:48:53;18.10;76.70
60848;DHT22;46681;47.696;9.140;2022-10-16T08:51:27;18.20;76.60
60848;DHT22;46681;47.696;9.140;2022-10-16T08:54:03;18.20;76.40
60848;DHT22;46681;47.696;9.140;2022-10-16T08:56:32;18.30;76.40
60848;DHT22;46681;47.696;9.140;2022-10-16T08:59:00;18.50;76.60
60848;DHT22;46681;47.696;9.140;2022-10-16T09:01:49;18.60;76.30
60848;DHT22;46681;47.696;9.140;2022-10-16T09:07:36;19.00;75.30
60848;DHT22;46681;47.696;9.140;2022-10-16T09:10:23;19.20;74.80
60848;DHT22;46681;47.696;9.140;2022-10-16T09:13:16;19.40;74.40
60848;DHT22;46681;47.696;9.140;2022-10-16T09:19:04;19.60;73.50
60848;DHT22;46681;47.696;9.140;2022-10-16T09:21:42;19.80;73.10
60848;DHT22;46681;47.696;9.140;2022-10-16T09:24:21;20.10;72.80
60848;DHT22;46681;47.696;9.140;2022-10-16T09:26:53;20.30;72.10
60848;DHT22;46681;47.696;9.140;2022-10-16T09:29:20;20.50;71.50
60848;DHT22;46681;47.696;9.140;2022-10-16T09:31:51;20.60;70.90
60848;DHT22;46681;47.696;9.140;2022-10-16T09:34:36;20.90;70.50
60848;DHT22;46681;47.696;9.140;2022-10-16T09:37:10;21.10;69.90
60848;DHT22;46681;47.696;9.140;2022-10-16T09:39:49;21.30;69.60
60848;DHT22;46681;47.696;9.140;2022-10-16T09:42:37;21.50;69.00
60848;DHT22;46681;47.696;9.140;2022-10-16T09:45:19;21.70;68.70
60848;DHT22;46681;47.696;9.140;2022-10-16T09:47:52;21.90;68.20
60848;DHT22;46681;47.696;9.140;2022-10-16T09:50:26;22.10;67.60
60848;DHT22;46681;47.696;9.140;2022-10-16T09:53:13;22.30;66.90
60848;DHT22;46681;47.696;9.140;2022-10-16T09:55:52;22.50;66.50
60848;DHT22;46681;47.696;9.140;2022-10-16T09:58:23;22.70;66.00
60848;DHT22;46681;47.696;9.140;2022-10-16T10:00:54;22.80;65.50
60848;DHT22;46681;47.696;9.140;2022-10-16T10:03:38;23.00;65.10
60848;DHT22;46681;47.696;9.140;2022-10-16T10:06:30;22.90;64.60
60848;DHT22;46681;47.696;9.140;2022-10-16T10:22:41;23.10;64.80
60848;DHT22;46681;47.696;9.140;2022-10-16T10:30:40;23.30;64.50
60848;DHT22;46681;47.696;9.140;2022-10-16T10:38:54;23.90;63.60
60848;DHT22;46681;47.696;9.140;2022-10-16T10:50:00;24.80;61.30
60848;DHT22;46681;47.696;9.140;2022-10-16T10:55:31;25.00;59.60
60848;DHT22;46681;47.696;9.140;2022-10-16T11:04:27;25.50;59.00
60848;DHT22;46681;47.696;9.140;2022-10-16T11:07:05;25.70;58.70
60848;DHT22;46681;47.696;9.140;2022-10-16T11:09:51;25.80;58.40
60848;DHT22;46681;47.696;9.140;2022-10-16T11:12:40;26.00;58.10
60848;DHT22;46681;47.696;9.140;2022-10-16T11:15:21;26.20;58.00
60848;DHT22;46681;47.696;9.140;2022-10-16T11:18:25;26.30;57.90
60848;DHT22;46681;47.696;9.140;2022-10-16T11:21:18;26.30;57.20
60848;DHT22;46681;47.696;9.140;2022-10-16T11:23:59;26.50;57.40
60848;DHT22;46681;47.696;9.140;2022-10-16T11:26:38;26.60;57.20
60848;DHT22;46681;47.696;9.140;2022-10-16T11:29:26;26.70;56.90
60848;DHT22;46681;47.696;9.140;2022-10-16T11:32:12;26.90;56.80
60848;DHT22;46681;47.696;9.140;2022-10-16T11:35:05;27.00;56.50
60848;DHT22;46681;47.696;9.140;2022-10-16T11:37:54;27.10;56.50
60848;DHT22;46681;47.696;9.140;2022-10-16T11:40:53;27.30;56.20
60848;DHT22;46681;47.696;9.140;2022-10-16T11:43:46;27.40;56.00
60848;DHT22;46681;47.696;9.140;2022-10-16T11:49:47;27.70;55.70
60848;DHT22;46681;47.696;9.140;2022-10-16T11:52:23;27.60;55.30
60848;DHT22;46681;47.696;9.140;2022-10-16T12:06:41;26.40;57.10
60848;DHT22;46681;47.696;9.140;2022-10-16T12:09:24;26.30;57.40
60848;DHT22;46681;47.696;9.140;2022-10-16T12:15:41;26.00;58.00
60848;DHT22;46681;47.696;9.140;2022-10-16T12:18:26;25.80;58.20
60848;DHT22;46681;47.696;9.140;2022-10-16T12:21:06;25.60;58.60
60848;DHT22;46681;47.696;9.140;2022-10-16T12:24:02;25.50;58.80
60848;DHT22;46681;47.696;9.140;2022-10-16T12:26:45;25.30;59.00
60848;DHT22;46681;47.696;9.140;2022-10-16T12:32:37;25.20;59.60
60848;DHT22;46681;47.696;9.140;2022-10-16T12:35:22;25.50;59.30
60848;DHT22;46681;47.696;9.140;2022-10-16T12:38:20;25.40;59.00
60848;DHT22;46681;47.696;9.140;2022-10-16T12:41:31;25.60;59.40
60848;DHT22;46681;47.696;9.140;2022-10-16T12:44:20;26.10;58.60
60848;DHT22;46681;47.696;9.140;2022-10-16T12:46:48;26.40;57.80
60848;DHT22;46681;47.696;9.140;2022-10-16T12:52:02;27.00;56.70
60848;DHT22;46681;47.696;9.140;2022-10-16T12:54:37;27.20;55.90
60848;DHT22;46681;47.696;9.140;2022-10-16T13:00:21;27.50;55.10
60848;DHT22;46681;47.696;9.140;2022-10-16T13:25:18;27.90;53.90
60848;DHT22;46681;47.696;9.140;2022-10-16T13:30:29;27.70;54.00
60848;DHT22;46681;47.696;9.140;2022-10-16T13:35:54;27.80;54.20
60848;DHT22;46681;47.696;9.140;2022-10-16T13:38:40;27.80;54.00
60848;DHT22;46681;47.696;9.140;2022-10-16T13:41:33;27.90;54.00
60848;DHT22;46681;47.696;9.140;2022-10-16T13:44:02;28.10;54.10
60848;DHT22;46681;47.696;9.140;2022-10-16T13:46:43;28.20;53.60
60848;DHT22;46681;47.696;9.140;2022-10-16T13:49:22;28.30;53.30
60848;DHT22;46681;47.696;9.140;2022-10-16T13:52:28;28.40;52.90
60848;DHT22;46681;47.696;9.140;2022-10-16T13:55:14;28.50;52.80
60848;DHT22;46681;47.696;9.140;2022-10-16T13:57:43;28.60;52.60
60848;DHT22;46681;47.696;9.140;2022-10-16T14:00:41;28.60;52.50
60848;DHT22;46681;47.696;9.140;2022-10-16T14:03:27;28.50;52.40
60848;DHT22;46681;47.696;9.140;2022-10-16T14:06:11;28.40;52.60
60848;DHT22;46681;47.696;9.140;2022-10-16T14:08:43;28.40;52.70
60848;DHT22;46681;47.696;9.140;2022-10-16T14:11:25;28.50;52.60
60848;DHT22;46681;47.696;9.140;2022-10-16T14:14:05;28.40;52.70
60848;DHT22;46681;47.696;9.140;2022-10-16T14:16:34;28.40;52.70
60848;DHT22;46681;47.696;9.140;2022-10-16T14:24:59;28.20;52.60
60848;DHT22;46681;47.696;9.140;2022-10-16T14:27:37;28.10;52.60
60848;DHT22;46681;47.696;9.140;2022-10-16T14:30:20;28.00;53.00
60848;DHT22;46681;47.696;9.140;2022-10-16T14:36:20;27.50;53.50
60848;DHT22;46681;47.696;9.140;2022-10-16T14:39:13;27.20;54.10
60848;DHT22;46681;47.696;9.140;2022-10-16T14:41:54;27.00;54.60
60848;DHT22;46681;47.696;9.140;2022-10-16T14:44:46;26.80;55.00
60848;DHT22;46681;47.696;9.140;2022-10-16T14:47:23;26.60;55.30
60848;DHT22;46681;47.696;9.140;2022-10-16T14:49:54;26.40;55.80
60848;DHT22;46681;47.696;9.140;2022-10-16T14:52:29;26.00;55.30
60848;DHT22;46681;47.696;9.140;2022-10-16T14:55:01;25.70;55.90
60848;DHT22;46681;47.696;9.140;2022-10-16T14:57:32;25.60;56.20
60848;DHT22;46681;47.696;9.140;2022-10-16T15:00:19;25.50;56.20
60848;DHT22;46681;47.696;9.140;2022-10-16T15:02:49;25.50;56.70
60848;DHT22;46681;47.696;9.140;2022-10-16T15:05:25;25.40;56.90
60848;DHT22;46681;47.696;9.140;2022-10-16T15:08:00;25.30;57.20
60848;DHT22;46681;47.696;9.140;2022-10-16T15:10:38;25.30;57.50
60848;DHT22;46681;47.696;9.140;2022-10-16T15:13:15;25.20;57.70
60848;DHT22;46681;47.696;9.140;2022-10-16T15:15:46;25.10;58.00
60848;DHT22;46681;47.696;9.140;2022-10-16T15:18:14;25.00;58.30
60848;DHT22;46681;47.696;9.140;2022-10-16T15:20:47;24.90;58.50
60848;DHT22;46681;47.696;9.140;2022-10-16T15:23:17;24.80;58.80
60848;DHT22;46681;47.696;9.140;2022-10-16T15:26:07;24.80;59.20
60848;DHT22;46681;47.696;9.140;2022-10-16T15:28:32;24.70;59.40
60848;DHT22;46681;47.696;9.140;2022-10-16T15:31:01;24.60;59.60
60848;DHT22;46681;47.696;9.140;2022-10-16T15:33:34;24.60;60.00
60848;DHT22;46681;47.696;9.140;2022-10-16T15:36:06;24.50;60.10
60848;DHT22;46681;47.696;9.140;2022-10-16T15:38:35;24.40;60.30
60848;DHT22;46681;47.696;9.140;2022-10-16T15:41:02;24.30;60.60
60848;DHT22;46681;47.696;9.140;2022-10-16T15:43:36;24.20;60.80
60848;DHT22;46681;47.696;9.140;2022-10-16T15:46:11;24.20;60.90
60848;DHT22;46681;47.696;9.140;2022-10-16T15:48:38;24.10;61.40
60848;DHT22;46681;47.696;9.140;2022-10-16T15:51:07;24.00;61.60
60848;DHT22;46681;47.696;9.140;2022-10-16T15:53:38;23.90;61.70
60848;DHT22;46681;47.696;9.140;2022-10-16T15:56:05;23.90;61.90
60848;DHT22;46681;47.696;9.140;2022-10-16T15:58:35;23.80;61.70
60848;DHT22;46681;47.696;9.140;2022-10-16T16:01:02;23.70;61.90
60848;DHT22;46681;47.696;9.140;2022-10-16T16:03:30;23.70;61.90
60848;DHT22;46681;47.696;9.140;2022-10-16T16:05:55;23.60;62.30
60848;DHT22;46681;47.696;9.140;2022-10-16T16:08:35;23.50;62.50
60848;DHT22;46681;47.696;9.140;2022-10-16T16:11:17;23.50;62.50
60848;DHT22;46681;47.696;9.140;2022-10-16T16:13:48;23.40;62.80
60848;DHT22;46681;47.696;9.140;2022-10-16T16:16:16;23.30;63.20
60848;DHT22;46681;47.696;9.140;2022-10-16T16:18:45;23.20;63.10
60848;DHT22;46681;47.696;9.140;2022-10-16T16:21:12;23.20;63.60
60848;DHT22;46681;47.696;9.140;2022-10-16T16:23:39;23.10;63.60
60848;DHT22;46681;47.696;9.140;2022-10-16T16:26:12;23.00;63.70
60848;DHT22;46681;47.696;9.140;2022-10-16T16:28:43;22.90;63.90
60848;DHT22;46681;47.696;9.140;2022-10-16T16:31:10;22.90;64.00
60848;DHT22;46681;47.696;9.140;2022-10-16T16:33:55;22.90;64.30
60848;DHT22;46681;47.696;9.140;2022-10-16T16:36:23;22.70;64.50
60848;DHT22;46681;47.696;9.140;2022-10-16T16:38:51;22.70;64.50
60848;DHT22;46681;47.696;9.140;2022-10-16T16:41:18;22.60;64.60
60848;DHT22;46681;47.696;9.140;2022-10-16T16:43:45;22.50;64.90
60848;DHT22;46681;47.696;9.140;2022-10-16T16:46:13;22.40;64.90
60848;DHT22;46681;47.696;9.140;2022-10-16T16:48:40;22.30;65.20
60848;DHT22;46681;47.696;9.140;2022-10-16T16:51:12;22.20;65.40
60848;DHT22;46681;47.696;9.140;2022-10-16T16:53:45;22.20;65.40
60848;DHT22;46681;47.696;9.140;2022-10-16T16:56:17;22.10;65.80
60848;DHT22;46681;47.696;9.140;2022-10-16T16:58:47;22.00;65.70
60848;DHT22;46681;47.696;9.140;2022-10-16T17:01:16;22.00;65.80
60848;DHT22;46681;47.696;9.140;2022-10-16T17:03:45;21.90;65.80
60848;DHT22;46681;47.696;9.140;2022-10-16T17:06:13;21.80;66.10
60848;DHT22;46681;47.696;9.140;2022-10-16T17:08:39;21.70;66.50
60848;DHT22;46681;47.696;9.140;2022-10-16T17:11:11;21.60;66.40
60848;DHT22;46681;47.696;9.140;2022-10-16T17:13:39;21.60;66.60
60848;DHT22;46681;47.696;9.140;2022-10-16T17:16:09;21.50;67.00
60848;DHT22;46681;47.696;9.140;2022-10-16T17:18:37;21.40;67.60
60848;DHT22;46681;47.696;9.140;2022-10-16T17:21:07;21.40;67.40
60848;DHT22;46681;47.696;9.140;2022-10-16T17:23:43;21.30;68.20
60848;DHT22;46681;47.696;9.140;2022-10-16T17:26:15;21.20;67.90
60848;DHT22;46681;47.696;9.140;2022-10-16T17:28:44;21.10;68.50
60848;DHT22;46681;47.696;9.140;2022-10-16T17:31:15;21.10;68.60
60848;DHT22;46681;47.696;9.140;2022-10-16T17:33:46;21.00;68.80
60848;DHT22;46681;47.696;9.140;2022-10-16T17:36:12;20.90;68.80
60848;DHT22;46681;47.696;9.140;2022-10-16T17:38:37;20.80;69.00
60848;DHT22;46681;47.696;9.140;2022-10-16T17:41:23;20.80;68.90
60848;DHT22;46681;47.696;9.140;2022-10-16T17:43:50;20.60;69.10
60848;DHT22;46681;47.696;9.140;2022-10-16T17:46:22;20.60;69.50
60848;DHT22;46681;47.696;9.140;2022-10-16T17:48:50;20.50;69.50
60848;DHT22;46681;47.696;9.140;2022-10-16T17:51:22;20.50;69.80
60848;DHT22;46681;47.696;9.140;2022-10-16T17:53:51;20.40;69.60
60848;DHT22;46681;47.696;9.140;2022-10-16T17:56:24;20.40;69.80
60848;DHT22;46681;47.696;9.140;2022-10-16T17:58:55;20.30;69.90
60848;DHT22;46681;47.696;9.140;2022-10-16T18:01:31;20.20;69.80
60848;DHT22;46681;47.696;9.140;2022-10-16T18:04:10;20.20;70.20
60848;DHT22;46681;47.696;9.140;2022-10-16T18:06:38;20.10;70.20
60848;DHT22;46681;47.696;9.140;2022-10-16T18:09:06;20.00;70.30
60848;DHT22;46681;47.696;9.140;2022-10-16T18:11:33;20.00;70.40
60848;DHT22;46681;47.696;9.140;2022-10-16T18:14:00;19.90;70.60
60848;DHT22;46681;47.696;9.140;2022-10-16T18:16:31;19.90;70.70
60848;DHT22;46681;47.696;9.140;2022-10-16T18:18:58;19.80;70.60
60848;DHT22;46681;47.696;9.140;2022-10-16T18:21:25;19.70;70.80
60848;DHT22;46681;47.696;9.140;2022-10-16T18:24:01;19.70;70.90